Station: Alice Springs Airport  

  Atmospheric Gas Attenuation - ITU Rec 676-11   ----------------- dB/100km -----------------
Date Time Temp RH % AH g/m3 Dew Point Wind Direction Speed kph Gust kph Barometer mB Rainfall Since 9am 24GHz 47GHz 76GHz 122GHz 134GHz 241GHz
08/05 12:00 16 34 4.63 0.2 30 43 1025.6 0 11.1 19.9 24.8 64.3 49.0 165.3
08/05 11:50 15.4 35 4.6 0 37 44 1025.9 0 11.1 20.0 24.9 64.5 49.1 165.4
08/05 11:40 15.7 35 4.68 0.3 33 44 1025.9 0 11.2 20.0 25.1 65.0 49.8 167.9
08/05 11:30 15.6 36 4.79 0.6 33 48 1026 0 11.4 20.2 25.5 66.1 51.1 172.5
08/05 11:20 15.3 36 4.7 0.3 35 43 1026.3 0 11.3 20.1 25.3 65.5 50.3 169.6
08/05 11:10 14.9 38 4.84 0.7 37 46 1026.4 0 11.6 20.4 25.9 67.1 52.1 176.0
08/05 11:00 15 38 4.87 0.8 35 48 1026.5 0 11.6 20.5 26.0 67.3 52.4 177.0
08/05 10:50 14.8 39 4.94 1 33 39 1026.6 0 11.8 20.6 26.3 68.1 53.3 180.2
08/05 10:40 14.7 39 4.91 0.9 39 46 1026.8 0 11.7 20.6 26.2 67.9 53.0 179.3
08/05 10:30 15.2 41 5.32 2.1 35 52 1026.7 0 12.6 21.0 27.5 71.3 57.4 194.6
08/05 10:20 14.3 42 5.16 1.6 37 46 1026.8 0 12.3 21.0 27.2 70.6 56.2 190.3
08/05 10:10 14 41 4.95 1 37 48 1026.8 0 11.8 20.8 26.6 68.9 54.0 182.4
08/05 10:00 13.9 43 5.16 1.5 37 54 1026.8 0 12.3 21.1 27.3 71.0 56.5 191.2
08/05 09:50 13.9 44 5.28 1.9 33 46 1026.8 0 12.5 21.3 27.8 72.1 57.9 196.1
08/05 09:40 14 44 5.31 2 39 46 1026.8 0 12.6 21.3 27.8 72.3 58.1 197.1
08/05 09:30 13.9 46 5.51 2.5 37 52 1026.7 0 13.0 21.6 28.6 74.3 60.6 205.6
08/05 09:20 13.2 48 5.51 2.4 35 44 1026.6 0 13.0 21.8 28.8 74.9 61.1 207.4
08/05 09:10 12.9 48 5.41 2.2 39 44 1026.5 0 12.8 21.7 28.6 74.2 60.1 203.9
08/05 09:00 12.9 49 5.52 2.5 30 41 1026.4 0 13.1 21.9 29.0 75.3 61.4 208.5
08/05 08:50 12.7 51 5.68 2.8 22 26 1026.4 0 13.4 22.1 29.6 77.0 63.5 215.8
08/05 08:40 12.5 53 5.83 3.2 22 28 1026.4 0 13.7 22.4 30.2 78.7 65.5 222.8
08/05 08:30 12.2 55 5.94 3.4 22 33 1026.3 0 14.0 22.6 30.7 80.1 67.1 228.3
08/05 08:20 11.9 56 5.93 3.4 17 20 1026.2 0 14.0 22.7 30.8 80.3 67.2 228.7
08/05 08:10 11.7 56 5.86 3.2 26 32 1026.2 0 13.8 22.6 30.6 79.8 66.5 226.2
08/05 08:00 11.5 58 5.99 3.5 19 30 1026.1 0 14.1 22.9 31.2 81.2 68.3 232.5
08/05 07:50 11.3 58 5.92 3.3 20 24 1026 0 14.0 22.8 31.0 80.7 67.6 230.0
08/05 07:40 11 59 5.91 3.3 20 28 1025.9 0 14.0 22.9 31.1 80.9 67.7 230.4
08/05 07:30 11.1 59 5.94 3.4 22 30 1025.7 0 14.0 22.9 31.1 81.1 68.0 231.3
08/05 07:20 11 60 6.01 3.5 22 28 1025.6 0 14.2 23.0 31.4 81.9 68.9 234.7
08/05 07:10 11 60 6.01 3.5 24 28 1025.5 0 14.2 23.0 31.4 81.9 68.9 234.7
08/05 07:00 11 60 6.01 3.5 24 39 1025.3 0 14.2 23.0 31.4 81.9 68.9 234.6
08/05 06:50 11.1 61 6.15 3.9 26 30 1025.3 0 14.5 23.2 31.9 83.2 70.6 240.5
08/05 06:40 11.4 60 6.16 3.9 30 35 1025.2 0 14.5 23.1 31.8 83.0 70.4 240.0
08/05 06:30 11.4 61 6.26 4.2 22 37 1025 0 14.7 23.3 32.2 84.0 71.7 244.4
08/05 06:20 11.5 62 6.4 4.5 22 28 1024.8 0 15.0 23.5 32.7 85.3 73.3 250.2
08/05 06:10 11.7 62 6.49 4.7 22 32 1024.8 0 15.2 23.6 33.0 86.0 74.3 253.6
08/05 06:00 11.8 61 6.42 4.5 28 32 1024.7 0 15.0 23.4 32.7 85.2 73.3 250.1
08/05 05:50 12.1 60 6.44 4.6 28 37 1024.6 0 15.1 23.4 32.6 85.0 73.3 250.1
08/05 05:40 12.2 60 6.48 4.7 33 39 1024.5 0 15.1 23.4 32.7 85.3 73.7 251.5
08/05 05:30 12.2 63 6.8 5.4 24 37 1024.5 0 15.8 23.9 33.9 88.6 77.7 265.7
08/05 05:20 12.2 64 6.91 5.6 28 33 1024.5 0 16.0 24.1 34.4 89.7 79.1 270.6
08/05 05:10 12.2 65 7.01 5.8 28 35 1024.5 0 16.3 24.2 34.7 90.8 80.4 275.1
08/05 05:00 12.2 65 7.01 5.8 20 32 1024.4 0 16.3 24.2 34.7 90.8 80.4 275.0
08/05 04:50 12.4 65 7.1 6 19 24 1024.4 0 16.4 24.3 35.0 91.5 81.3 278.4
08/05 04:40 12.5 65 7.15 6.1 26 30 1024.3 0 16.5 24.4 35.2 91.9 81.9 280.3
08/05 04:30 12.5 65 7.15 6.1 24 35 1024.2 0 16.5 24.4 35.1 91.9 81.9 280.2
08/05 04:20 12.6 65 7.19 6.2 24 30 1024.3 0 16.6 24.4 35.3 92.2 82.3 281.7
08/05 04:10 12.8 65 7.28 6.4 17 20 1024.3 0 16.8 24.5 35.5 92.9 83.2 285.0
08/05 04:00 12.9 64 7.21 6.3 22 33 1024.2 0 16.7 24.3 35.2 92.0 82.2 281.5
08/05 03:50 13.1 64 7.3 6.5 20 26 1024.3 0 16.8 24.4 35.5 92.7 83.2 284.9
08/05 03:40 13.1 64 7.3 6.5 32 35 1024.3 0 16.8 24.4 35.5 92.7 83.2 284.9
08/05 03:30 13.1 65 7.42 6.7 24 33 1024.1 0 17.1 24.6 35.9 94.0 84.7 290.2
08/05 03:20 13.2 65 7.46 6.8 22 26 1024.2 0 17.2 24.7 36.0 94.3 85.1 291.7
08/05 03:10 13.4 64 7.44 6.7 20 26 1024.3 0 17.1 24.6 35.9 93.8 84.6 290.1
08/05 03:00 13.5 64 7.49 6.8 24 33 1024.2 0 17.2 24.6 36.0 94.2 85.2 291.9
08/05 02:50 13.5 63 7.37 6.6 28 35 1024.3 0 17.0 24.4 35.6 93.0 83.6 286.6
08/05 02:40 13.7 63 7.46 6.8 26 30 1024.3 0 17.2 24.5 35.8 93.7 84.6 289.9
08/05 02:30 13.7 62 7.34 6.6 22 32 1024.2 0 16.9 24.3 35.4 92.4 83.0 284.5
08/05 02:20 13.7 61 7.22 6.3 19 26 1024.2 0 16.6 24.1 34.9 91.2 81.5 279.1
08/05 02:10 13.8 61 7.27 6.4 17 22 1024.3 0 16.7 24.2 35.0 91.6 82.0 281.0
08/05 02:00 13.5 62 7.25 6.4 17 28 1024.2 0 16.7 24.2 35.1 91.7 82.1 281.2
08/05 01:50 13.5 61 7.14 6.1 17 19 1024.3 0 16.5 24.1 34.7 90.6 80.7 276.3
08/05 01:40 13.5 61 7.14 6.1 15 22 1024.4 0 16.5 24.1 34.7 90.6 80.7 276.3
08/05 01:30 13.6 61 7.18 6.2 17 24 1024.4 0 16.6 24.1 34.8 90.9 81.1 277.8
08/05 01:20 13.7 61 7.22 6.3 17 20 1024.5 0 16.6 24.2 34.9 91.2 81.5 279.2
08/05 01:10 13.6 60 7.06 6 20 26 1024.6 0 16.3 23.9 34.3 89.7 79.6 272.5
08/05 01:00 13.7 60 7.11 6.1 19 26 1024.6 0 16.4 24.0 34.5 90.1 80.1 274.4
08/05 00:50 13.7 59 6.99 5.8 19 24 1024.6 0 16.2 23.8 34.0 88.9 78.6 269.1
08/05 00:40 13.9 58 6.95 5.8 17 22 1024.7 0 16.1 23.7 33.8 88.3 77.9 266.7
08/05 00:30 13.8 58 6.91 5.7 15 24 1024.8 0 16.0 23.7 33.7 88.0 77.5 265.3
08/05 00:20 13.9 57 6.83 5.5 15 19 1024.8 0 15.8 23.5 33.4 87.1 76.4 261.4
08/05 00:10 14.1 57 6.92 5.7 17 20 1024.9 0 16.0 23.6 33.6 87.8 77.4 264.7
08/05 00:00 14.3 56 6.88 5.7 15 20 1024.9 0 15.9 23.5 33.4 87.1 76.7 262.3
07/05 23:50 14 56 6.75 5.4 13 15 1024.9 0 15.6 23.4 33.0 86.2 75.4 257.7
07/05 23:40 14.2 55 6.72 5.3 13 15 1024.9 0 15.6 23.3 32.8 85.6 74.8 255.7
07/05 23:30 14.6 54 6.76 5.4 17 26 1025 0 15.6 23.2 32.8 85.6 74.9 256.2
07/05 23:20 14.4 55 6.8 5.5 24 30 1025.2 0 15.7 23.4 33.1 86.3 75.6 258.6
07/05 23:10 14 56 6.75 5.4 13 15 1025.2 0 15.6 23.4 33.0 86.2 75.4 257.7
07/05 23:00 14.1 55 6.68 5.2 15 19 1025.1 0 15.5 23.2 32.7 85.4 74.4 254.4
07/05 22:50 14.3 54 6.63 5.1 13 17 1025.2 0 15.4 23.1 32.5 84.7 73.6 251.6
07/05 22:40 14.5 54 6.72 5.3 15 17 1025.2 0 15.6 23.2 32.7 85.4 74.5 254.8
07/05 22:30 14.4 53 6.55 5 17 20 1025.1 0 15.2 23.0 32.1 83.8 72.5 247.8
07/05 22:20 14.2 53 6.47 4.8 15 19 1025.2 0 15.0 22.9 31.9 83.2 71.8 245.0
07/05 22:10 14.2 54 6.59 5 1025 0 15.3 23.1 32.3 84.4 73.2 250.1
07/05 22:00 12.8 59 6.61 5 13 20 1025 0 15.4 23.5 33.0 86.1 74.8 255.4
07/05 21:50 12.6 59 6.53 4.8 11 11 1024.9 0 15.2 23.4 32.8 85.4 73.9 252.5
07/05 21:40 12.5 58 6.38 4.5 11 11 1024.9 0 14.9 23.2 32.2 84.0 72.2 246.3
07/05 21:30 13 56 6.35 4.4 13 15 1024.8 0 14.8 23.0 31.9 83.2 71.3 243.4
07/05 21:20 13.5 55 6.43 4.6 13 13 1024.8 0 15.0 23.0 32.0 83.5 71.9 245.3
07/05 21:10 13.3 55 6.35 4.5 11 13 1024.8 0 14.8 22.9 31.8 82.9 71.1 242.5
07/05 21:00 13.7 53 6.28 4.3 13 19 1024.8 0 14.7 22.7 31.4 81.8 69.9 238.3
07/05 20:50 14.3 51 6.27 4.3 13 15 1024.7 0 14.6 22.6 31.1 81.1 69.2 236.1
07/05 20:40 14.6 50 6.26 4.3 15 19 1024.7 0 14.6 22.5 31.0 80.7 68.8 234.8
07/05 20:30 15.2 48 6.23 4.3 13 19 1024.6 0 14.5 22.3 30.6 79.8 67.9 231.8
07/05 20:20 15.6 46 6.12 4 15 17 1024.5 0 14.2 22.0 30.1 78.3 66.3 226.0
07/05 20:10 15.8 46 6.19 4.2 15 17 1024.5 0 14.4 22.1 30.2 78.8 67.0 228.4
07/05 20:00 15.8 46 6.19 4.2 13 17 1024.4 0 14.4 22.1 30.2 78.8 67.0 228.4
07/05 19:50 15.9 45 6.09 4 13 15 1024.3 0 14.2 21.9 29.8 77.7 65.7 223.9
07/05 19:40 16 45 6.13 4.1 13 15 1024.1 0 14.3 21.9 29.9 78.0 66.1 225.3
07/05 19:30 16.2 44 6.07 3.9 15 19 1024 0 14.1 21.8 29.7 77.2 65.2 222.2

Last Refresh: 08-May-2026 12:09:23

Bureau of Meteorology